• Join FlightAware (Why Join?)
  • Login
  • US Flag 
08:44AM EDT


 

Airport Tracker/Info


-or-


 

Live Flight TrackerFlight Track Log ✈ GJS6221 ✈ 02-Oct-2013 ✈ KLGA - KSAV

Flight Track Log - Related Links

Times and Time Zones

All times are in EDT time to prevent confusion due to time zone crossing. See the GJS6221 flight status page for this flight to view local times or setup timezone preferences in your user account.

Time Position Orientation Groundspeed Altitude Reporting Facility
EDT Latitude Longitude Course Direction KTS MPH feet Rate Location/Type
04:12PM 40.8167 -73.9167 214° Southwest 195 224 2,300  Level New York TRACON
04:13PM 40.8667 -73.9667 323° Northwest 230 265 4,900 2,640 Climbing New York TRACON
04:14PM 40.8833 -74.0500 285° West 255 293 7,600 2,640 Climbing New York TRACON
04:15PM 40.8000 -74.0833 197° South 299 344 10,200 1,560 Climbing New York TRACON
04:17PM 40.4108 -74.2286 214° Southwest  Level Estimated
04:17PM 40.6553 -74.0672 175° South 329 379 12,000  Level New York Center
04:18PM 40.5781 -74.1456 218° Southwest 313 360 12,500 1,020 Climbing New York Center
04:19PM 40.4814 -74.1736 192° South 339 390 14,100 1,680 Climbing New York Center
04:20PM 40.3725 -74.1925 188° South 380 437 15,900 1,440 Climbing New York Center
04:21PM 40.2614 -74.2117 187° South 403 464 17,000 960 Climbing New York Center
04:22PM 40.1483 -74.2306 187° South 416 479 17,900 1,200 Climbing New York Center
04:23PM 40.0436 -74.2469 187° South 416 479 19,500 1,500 Climbing New York Center
04:24PM 39.8906 -74.3611 210° Southwest 394 453 21,900 1,020 Climbing Washington Center
04:25PM 39.7997 -74.4544 218° Southwest 406 467 22,300 780 Climbing Washington Center
04:26PM 39.7217 -74.5608 226° Southwest 412 474 23,500 1,200 Climbing Washington Center
04:27PM 39.6392 -74.6700 226° Southwest 417 480 24,800 1,260 Climbing Washington Center
04:28PM 39.5544 -74.7786 225° Southwest 422 486 26,100 1,260 Climbing Washington Center
04:29PM 39.4553 -74.8872 220° Southwest 432 497 27,400 1,080 Climbing Washington Center
04:30PM 39.3408 -74.9528 204° Southwest 439 505 28,300 900 Climbing Washington Center
04:31PM 39.2244 -75.0208 204° Southwest 445 512 29,200 840 Climbing Washington Center
04:32PM 39.1081 -75.0833 203° Southwest 457 526 30,100 900 Climbing Washington Center
04:33PM 38.9875 -75.1564 205° Southwest 462 532 31,000 840 Climbing Washington Center
04:34PM 38.8711 -75.2183 203° Southwest 462 532 31,800 780 Climbing Washington Center
04:35PM 38.7481 -75.2750 200° South 468 539 32,600 780 Climbing Washington Center
04:36PM 38.6128 -75.2914 185° South 474 545 33,400 780 Climbing Washington Center
04:37PM 38.4792 -75.3053 185° South 479 551 34,200 780 Climbing Washington Center
04:38PM 38.3564 -75.3428 193° South 479 551 35,000 780 Climbing Washington Center
04:39PM 38.2544 -75.4383 216° Southwest 446 513 35,800 480 Climbing Washington Center
04:40PM 38.1481 -75.5311 214° Southwest 458 527 36,000 60 Climbing Washington Center
04:41PM 38.0458 -75.6286 217° Southwest 463 533 36,000  Level Washington Center
04:42PM 37.9458 -75.7314 219° Southwest 463 533 36,000  Level Washington Center
04:43PM 37.8600 -75.8075 215° Southwest 463 533 36,000  Level Washington Center
04:44PM 37.7369 -75.9200 216° Southwest 468 539 36,000  Level Washington Center
04:45PM 37.6303 -76.0192 216° Southwest 468 539 36,000  Level Washington Center
04:46PM 37.5275 -76.1156 217° Southwest 468 539 36,000  Level Washington Center
04:47PM 37.4186 -76.2011 212° Southwest 473 544 36,000  Level Washington Center
04:48PM 37.3117 -76.2994 216° Southwest 473 544 36,000  Level Washington Center
04:49PM 37.2089 -76.3950 217° Southwest 473 544 36,000  Level Washington Center
04:50PM 37.1019 -76.4878 215° Southwest 473 544 36,000  Level Washington Center
04:51PM 36.9969 -76.5828 216° Southwest 473 544 36,000  Level Washington Center
04:52PM 36.8939 -76.6775 216° Southwest 473 544 36,000  Level Washington Center
04:53PM 36.7886 -76.7719 216° Southwest 473 544 36,000  Level Washington Center
04:54PM 36.6814 -76.8661 215° Southwest 473 544 36,000  Level Washington Center
04:55PM 36.5822 -76.9628 218° Southwest 473 544 36,000  Level Washington Center
04:56PM 36.4808 -77.0669 220° Southwest 468 539 36,000  Level Washington Center
04:57PM 36.3814 -77.1683 219° Southwest 468 539 36,000  Level Washington Center
04:58PM 36.2842 -77.2694 220° Southwest 468 539 36,000  Level Washington Center
04:59PM 36.1847 -77.3703 219° Southwest 468 539 36,000  Level Washington Center
05:00PM 36.0997 -77.4558 219° Southwest 453 521 36,000  Level Washington Center
05:01PM 36.0022 -77.5561 220° Southwest 453 521 36,000  Level Washington Center
05:02PM 35.9025 -77.6536 218° Southwest 459 528 36,000  Level Washington Center
05:03PM 35.8028 -77.7511 218° Southwest 459 528 36,000  Level Washington Center
05:04PM 35.7028 -77.8506 219° Southwest 459 528 36,000  Level Washington Center
05:05PM 35.6031 -77.9475 218° Southwest 459 528 36,000  Level Washington Center
05:06PM 35.5031 -78.0439 218° Southwest 459 528 36,000  Level Washington Center
05:07PM 35.4028 -78.1428 219° Southwest 459 528 36,000  Level Washington Center
05:08PM 35.3047 -78.2389 219° Southwest 459 528 36,000  Level Washington Center
05:09PM 35.1958 -78.3447 218° Southwest 459 528 36,000  Level Washington Center
05:10PM 35.0997 -78.4378 218° Southwest 454 522 36,000  Level Washington Center
05:11PM 35.0036 -78.5333 219° Southwest 449 517 36,000  Level Washington Center
05:13PM 34.8164 -78.7128 218° Southwest 432 497 36,000  Level Jacksonville Center
05:14PM 34.7194 -78.8033 218° Southwest 432 497 36,000  Level Jacksonville Center
05:15PM 34.6242 -78.8961 219° Southwest 437 503 36,000  Level Jacksonville Center
05:16PM 34.5250 -78.9914 218° Southwest 444 511 36,000  Level Jacksonville Center
05:17PM 34.4319 -79.0889 221° Southwest 449 517 36,000  Level Jacksonville Center
05:18PM 34.3325 -79.1811 217° Southwest 455 524 36,000  Level Jacksonville Center
05:19PM 34.2372 -79.2733 219° Southwest 455 524 36,000  Level Jacksonville Center
05:20PM 34.1375 -79.3650 217° Southwest 455 524 36,000  Level Jacksonville Center
05:21PM 34.0419 -79.4517 217° Southwest 450 518 36,000  Level Jacksonville Center
05:22PM 33.9444 -79.5456 219° Southwest 445 512 36,000 -840 Level Jacksonville Center
05:23PM 33.8444 -79.6394 218° Southwest 456 525 34,400 -1,800 Descending Jacksonville Center
05:24PM 33.7425 -79.7331 217° Southwest 461 531 32,500 -1,920 Descending Jacksonville Center
05:25PM 33.6489 -79.8214 218° Southwest 454 522 30,600 -1,920 Descending Jacksonville Center
05:27PM 33.5429 -79.9122 216° Southwest  Level FlightAware Approximate
05:27PM 33.4569 -79.9997 216° Southwest 449 517 26,900  Level Jacksonville Center
05:28PM 33.3608 -80.0900 218° Southwest 449 517 25,200 -1,800 Descending Jacksonville Center
05:29PM 33.2667 -80.1772 218° Southwest 449 517 23,400 -1,800 Descending Jacksonville Center
05:30PM 33.1725 -80.2619 217° Southwest 436 502 21,700 -1,920 Descending Jacksonville Center
05:31PM 33.0681 -80.3569 217° Southwest 436 502 19,600 -1,860 Descending Jacksonville Center
05:32PM 32.9758 -80.4411 217° Southwest 436 502 18,000 -840 Descending Jacksonville Center
05:33PM 32.8833 -80.5228 217° Southwest 425 489 18,000  Level Jacksonville Center
05:34PM 32.7972 -80.6017 218° Southwest 414 476 18,000  Level Jacksonville Center
05:35PM 32.7131 -80.6803 218° Southwest 402 463 18,000 -900 Level Jacksonville Center
05:36PM 32.6286 -80.7539 216° Southwest 390 449 16,300 -2,160 Descending Jacksonville Center
05:37PM 32.5444 -80.8300 217° Southwest 390 449 13,700 -2,580 Descending Jacksonville Center
05:38PM 32.4619 -80.9056 218° Southwest 385 443 11,200 -1,440 Descending Jacksonville Center
05:39PM 32.3942 -80.9808 223° Southwest 359 413 10,900 -840 Descending Jacksonville Center
05:40PM 32.3600 -81.0603 243° Southwest 309 356 9,600 -1,620 Descending Jacksonville Center
05:41PM 32.3217 -81.1497 243° Southwest 290 334 7,700 -1,800 Descending Jacksonville Center
05:42PM 32.2850 -81.2264 241° Southwest 279 321 6,000 -1,200 Descending Jacksonville Center
05:43PM 32.2567 -81.2958 244° Southwest 253 291 5,400 -1,200 Descending Jacksonville Center
05:44PM 32.2408 -81.3600 254° West 231 266 3,600 -1,680 Descending Jacksonville Center
05:45PM 32.2247 -81.4239 253° West 217 250 2,100 -1,500 Descending Jacksonville Center
05:47PM 32.1665 -81.2916 117° Southeast  Level FlightAware Approximate
05:54PM 32.1167 -81.2000 140° Southeast  Level FlightAware Approximate
05:55PM 32.1276 -81.2021 140° Southeast  Level Estimated
05:56PM 32.1276 -81.2021 140° Southeast  Level Estimated
05:57PM 32.1276 -81.2021 140° Southeast  Level Estimated
05:58PM 32.1276 -81.2021 140° Southeast  Level Estimated
05:59PM 32.1276 -81.2021 140° Southeast  Level Estimated
06:00PM 32.1276 -81.2021 140° Southeast  Level Estimated